Time;durP1;ratioP1;P1;durP2;ratioP2;P2;SDS_P1;SDS_P2;PMS_P1;PMS_P2;Temp;Humidity;BMP_temperature;BMP_pressure;BME280_temperature;BME280_humidity;BME280_pressure;Samples;Min_cycle;Max_cycle;Signal;HPM_P1;HPM_P2
2022/03/07 00:01:11;;;;;;;;;;;;;;;0.17;96.58;99643.00;5053091;28;850;-60
2022/03/07 00:03:37;;;;;;;;;;;;;;;0.17;96.41;99637.56;5053125;28;834;-60
2022/03/07 00:06:07;;;;;;;;;;;;;;;0.19;95.69;99650.81;5053127;28;883;-60
2022/03/07 00:08:34;;;;;;;;;;;;;;;0.20;95.84;99636.09;5053021;28;883;-60
2022/03/07 00:11:02;;;;;;;;;;;;;;;0.17;95.61;99640.28;5052844;28;1948;-60
2022/03/07 00:13:28;;;;;;;;;;;;;;;0.13;95.86;99633.94;5052999;28;830;-60
2022/03/07 00:15:55;;;;;;;;;;;;;;;0.14;96.30;99646.38;5052950;28;811;-60
2022/03/07 00:18:20;;;;;;;;;;;;;;;0.13;95.99;99641.31;5052662;28;973;-60
2022/03/07 00:20:46;;;;;;;;;;;;;;;0.15;95.95;99634.41;5052789;28;859;-60
2022/03/07 00:23:15;;;;;;;;;;;;;;;0.19;95.94;99629.06;5052595;28;900;-60
2022/03/07 00:25:41;;;;;;;;;;;;;;;0.16;95.78;99625.09;5052726;28;835;-60
2022/03/07 00:28:08;;;;;;;;;;;;;;;0.16;95.70;99624.31;5052600;28;819;-60
2022/03/07 00:30:34;;;;;;;;;;;;;;;0.17;95.75;99623.97;5052491;28;1973;-60
2022/03/07 00:33:01;;;;;;;;;;;;;;;0.16;95.24;99622.38;5051132;28;1198;-60
2022/03/07 00:35:27;;;;;;;;;;;;;;;0.18;95.09;99624.75;5052412;28;826;-60
2022/03/07 00:37:54;;;;;;;;;;;;;;;0.22;94.65;99612.09;5052331;28;807;-60
2022/03/07 00:40:20;;;;;;;;;;;;;;;0.22;94.93;99614.03;5052356;28;815;-60
2022/03/07 00:42:46;;;;;;;;;;;;;;;0.22;94.91;99614.03;5052353;28;1246;-61
2022/03/07 00:45:13;;;;;;;;;;;;;;;0.19;95.07;99607.31;5052523;28;807;-61
2022/03/07 00:47:39;;;;;;;;;;;;;;;0.16;94.61;99603.34;5052999;28;855;-61
2022/03/07 00:50:06;;;;;;;;;;;;;;;0.17;95.03;99609.56;5052437;28;1918;-60
2022/03/07 00:52:33;;;;;;;;;;;;;;;0.17;94.76;99593.25;5052461;28;836;-60
2022/03/07 00:54:59;;;;;;;;;;;;;;;0.15;95.04;99593.63;5050819;28;1225;-60
2022/03/07 00:57:26;;;;;;;;;;;;;;;0.16;94.96;99583.53;5052251;28;878;-61
2022/03/07 00:59:51;;;;;;;;;;;;;;;0.14;95.07;99591.22;5052014;28;898;-60
2022/03/07 01:02:18;;;;;;;;;;;;;;;0.13;95.24;99584.22;5051906;28;866;-61
2022/03/07 01:04:44;;;;;;;;;;;;;;;0.11;95.44;99579.13;5051895;28;815;-60
2022/03/07 01:07:11;;;;;;;;;;;;;;;0.15;95.19;99579.22;5051764;28;855;-61
2022/03/07 01:09:37;;;;;;;;;;;;;;;0.15;94.68;99579.22;5051691;28;1893;-61
2022/03/07 01:12:04;;;;;;;;;;;;;;;0.15;94.86;99574.59;5051830;28;807;-61
2022/03/07 01:14:30;;;;;;;;;;;;;;;0.14;94.83;99581.16;5051751;28;871;-61
2022/03/07 01:16:57;;;;;;;;;;;;;;;0.14;95.14;99569.50;5051825;28;925;-61
2022/03/07 01:19:23;;;;;;;;;;;;;;;0.14;95.00;99573.00;5051710;28;851;-61
2022/03/07 01:21:51;;;;;;;;;;;;;;;0.09;95.00;99565.06;5051854;28;811;-61
2022/03/07 01:24:18;;;;;;;;;;;;;;;0.09;95.45;99575.16;5051908;28;815;-61
2022/03/07 01:26:46;;;;;;;;;;;;;;;0.10;95.41;99574.00;5051565;28;840;-61
2022/03/07 01:29:12;;;;;;;;;;;;;;;0.08;95.45;99562.69;5051504;28;1894;-61
2022/03/07 01:31:39;;;;;;;;;;;;;;;0.08;95.20;99566.19;5051522;28;823;-61
2022/03/07 01:34:05;;;;;;;;;;;;;;;0.10;95.33;99565.84;5051515;28;862;-61
2022/03/07 01:36:31;;;;;;;;;;;;;;;0.08;95.14;99565.41;5051603;28;843;-61
2022/03/07 01:38:58;;;;;;;;;;;;;;;0.07;94.90;99559.19;5051527;28;976;-61
2022/03/07 01:41:25;;;;;;;;;;;;;;;0.09;94.68;99569.72;5051435;28;862;-61
2022/03/07 01:43:52;;;;;;;;;;;;;;;0.10;95.05;99571.28;5051233;28;1231;-61
2022/03/07 01:46:18;;;;;;;;;;;;;;;0.08;94.78;99563.47;5050780;28;896;-61
2022/03/07 01:48:44;;;;;;;;;;;;;;;0.08;95.17;99573.56;5051373;28;846;-61
2022/03/07 01:51:13;;;;;;;;;;;;;;;0.09;94.42;99570.50;5051315;28;1971;-61
2022/03/07 01:53:39;;;;;;;;;;;;;;;0.07;94.76;99578.22;5051332;28;807;-61
2022/03/07 01:56:07;;;;;;;;;;;;;;;0.07;95.08;99580.13;5051376;28;823;-61
2022/03/07 01:58:34;;;;;;;;;;;;;;;0.12;94.66;99579.91;5051238;28;914;-60
2022/03/07 02:01:01;;;;;;;;;;;;;;;0.13;94.82;99571.41;5051450;28;850;-60
2022/03/07 02:03:27;;;;;;;;;;;;;;;0.12;94.52;99585.34;5051228;28;925;-60
2022/03/07 02:05:54;;;;;;;;;;;;;;;0.12;94.41;99574.47;5051103;28;826;-60
2022/03/07 02:08:20;;;;;;;;;;;;;;;0.09;94.09;99575.94;5051222;28;835;-60
2022/03/07 02:10:47;;;;;;;;;;;;;;;0.09;94.41;99578.66;5051031;28;1965;-61
2022/03/07 02:13:15;;;;;;;;;;;;;;;0.08;94.02;99593.38;5051308;28;895;-61
2022/03/07 02:15:41;;;;;;;;;;;;;;;0.08;94.41;99590.66;5051074;28;851;-61
2022/03/07 02:18:08;;;;;;;;;;;;;;;0.07;94.61;99599.94;5051432;28;1011;-61
2022/03/07 02:20:34;;;;;;;;;;;;;;;0.10;94.49;99607.41;5051068;28;925;-60
2022/03/07 02:23:01;;;;;;;;;;;;;;;0.13;94.09;99600.53;5051169;28;807;-62
2022/03/07 02:25:27;;;;;;;;;;;;;;;0.13;93.86;99604.03;5050962;28;874;-62
2022/03/07 02:27:54;;;;;;;;;;;;;;;0.10;94.00;99606.63;5050964;28;835;-61
2022/03/07 02:30:20;;;;;;;;;;;;;;;0.09;94.52;99602.34;5050913;28;1957;-61
2022/03/07 02:32:46;;;;;;;;;;;;;;;0.09;94.48;99603.13;5050959;28;815;-61
2022/03/07 02:35:13;;;;;;;;;;;;;;;0.07;94.33;99596.44;5050857;28;897;-62
2022/03/07 02:37:40;;;;;;;;;;;;;;;0.02;94.63;99600.16;5050883;28;823;-61
2022/03/07 02:40:07;;;;;;;;;;;;;;;0.00;94.83;99591.56;5049743;28;1442;-61
2022/03/07 02:42:33;;;;;;;;;;;;;;;0.01;94.83;99598.56;5050627;28;1454;-62
2022/03/07 02:45:00;;;;;;;;;;;;;;;0.00;94.95;99597.00;5050885;28;815;-62
2022/03/07 02:47:26;;;;;;;;;;;;;;;-0.03;95.01;99611.25;5050903;28;827;-62
2022/03/07 02:49:53;;;;;;;;;;;;;;;-0.07;95.12;99602.97;5050794;28;1910;-61
2022/03/07 02:52:20;;;;;;;;;;;;;;;-0.06;95.20;99598.34;5050838;28;870;-62
2022/03/07 02:54:46;;;;;;;;;;;;;;;-0.05;95.17;99608.84;5050729;28;854;-62
2022/03/07 02:57:13;;;;;;;;;;;;;;;-0.09;95.06;99607.16;5050835;28;891;-61
2022/03/07 02:59:40;;;;;;;;;;;;;;;-0.11;95.33;99603.97;5054329;28;800;-62
2022/03/07 03:02:06;;;;;;;;;;;;;;;-0.14;95.73;99610.88;5054217;28;860;-62
2022/03/07 03:04:34;;;;;;;;;;;;;;;-0.18;95.97;99603.72;5052775;28;891;-62
2022/03/07 03:07:01;;;;;;;;;;;;;;;-0.19;96.14;99604.84;5054213;28;850;-61
2022/03/07 03:09:27;;;;;;;;;;;;;;;-0.19;96.15;99615.72;5053950;28;1889;-62
2022/03/07 03:11:54;;;;;;;;;;;;;;;-0.21;96.12;99606.00;5054402;28;859;-61
2022/03/07 03:14:21;;;;;;;;;;;;;;;-0.23;96.30;99618.31;5053982;28;905;-62
2022/03/07 03:16:48;;;;;;;;;;;;;;;-0.23;96.30;99613.69;5053990;28;957;-62
2022/03/07 03:19:14;;;;;;;;;;;;;;;-0.25;96.20;99626.00;5053977;28;859;-61
2022/03/07 03:21:40;;;;;;;;;;;;;;;-0.26;96.29;99619.75;5053989;28;839;-62
2022/03/07 03:24:05;;;;;;;;;;;;;;;-0.28;96.32;99623.94;5054005;28;835;-62
2022/03/07 03:26:32;;;;;;;;;;;;;;;-0.25;96.35;99629.50;5052517;28;1312;-61
2022/03/07 03:28:58;;;;;;;;;;;;;;;-0.30;96.28;99632.44;5053832;28;885;-61
2022/03/07 03:31:24;;;;;;;;;;;;;;;-0.32;96.53;99625.75;5053556;28;1882;-62
2022/03/07 03:33:53;;;;;;;;;;;;;;;-0.34;96.35;99623.38;5053538;28;858;-61
2022/03/07 03:36:19;;;;;;;;;;;;;;;-0.37;96.75;99620.53;5053598;28;820;-62
2022/03/07 03:38:45;;;;;;;;;;;;;;;-0.37;96.63;99629.47;5053604;28;818;-62
2022/03/07 03:41:12;;;;;;;;;;;;;;;-0.38;96.50;99621.63;5053470;28;807;-62
2022/03/07 03:43:39;;;;;;;;;;;;;;;-0.42;96.62;99626.97;5053262;28;1392;-62
2022/03/07 03:46:05;;;;;;;;;;;;;;;-0.44;96.60;99621.06;5053647;28;826;-62
2022/03/07 03:48:32;;;;;;;;;;;;;;;-0.45;96.58;99627.59;5053630;28;832;-62
2022/03/07 03:50:58;;;;;;;;;;;;;;;-0.49;96.45;99635.66;5053280;28;1927;-61
2022/03/07 03:53:24;;;;;;;;;;;;;;;-0.48;96.73;99628.28;5053207;28;901;-62
2022/03/07 03:55:51;;;;;;;;;;;;;;;-0.47;96.73;99629.88;5053404;28;866;-62
2022/03/07 04:10:28;;;;;;;;;;;;;;;-0.50;96.30;99641.41;5053052;28;1929;-62
2022/03/07 04:12:54;;;;;;;;;;;;;;;-0.50;96.24;99644.13;5052888;28;982;-62
2022/03/07 04:15:21;;;;;;;;;;;;;;;-0.48;96.21;99650.78;5052821;28;860;-62
2022/03/07 04:17:49;;;;;;;;;;;;;;;-0.52;96.38;99644.44;5053108;28;1096;-62
2022/03/07 04:20:15;;;;;;;;;;;;;;;-0.50;96.27;99641.41;5051526;28;1319;-61
2022/03/07 04:22:42;;;;;;;;;;;;;;;-0.50;96.29;99644.91;5052876;28;819;-62
2022/03/07 04:25:09;;;;;;;;;;;;;;;-0.55;96.18;99633.47;5052648;28;861;-63
2022/03/07 04:27:36;;;;;;;;;;;;;;;-0.56;96.25;99632.66;5052651;28;831;-63
2022/03/07 04:30:04;;;;;;;;;;;;;;;-0.59;96.17;99627.91;5052565;28;1886;-62
2022/03/07 04:32:33;;;;;;;;;;;;;;;-0.60;96.17;99633.66;5052360;28;855;-62
2022/03/07 04:35:03;;;;;;;;;;;;;;;-0.59;95.91;99627.09;5051244;28;1641;-62
2022/03/07 04:37:31;;;;;;;;;;;;;;;-0.60;95.85;99625.50;5052411;28;934;-63
2022/03/07 04:39:58;;;;;;;;;;;;;;;-0.64;95.98;99615.31;5052338;28;883;-62
2022/03/07 04:42:24;;;;;;;;;;;;;;;-0.64;95.46;99609.91;5052012;28;1405;-62
2022/03/07 04:44:49;;;;;;;;;;;;;;;-0.63;95.54;99610.69;5052307;28;839;-62
2022/03/07 04:47:16;;;;;;;;;;;;;;;-0.62;95.35;99613.06;5052334;28;811;-62
2022/03/07 04:49:42;;;;;;;;;;;;;;;-0.64;95.63;99603.66;5052128;28;1975;-62
2022/03/07 04:52:08;;;;;;;;;;;;;;;-0.65;95.55;99599.34;5052354;28;803;-62
2022/03/07 04:54:36;;;;;;;;;;;;;;;-0.63;95.18;99602.53;5052141;28;827;-62
2022/03/07 04:57:01;;;;;;;;;;;;;;;-0.64;94.74;99604.47;5052114;28;838;-62
2022/03/07 04:59:28;;;;;;;;;;;;;;;-0.65;95.11;99608.28;5051993;28;939;-62
2022/03/07 05:01:54;;;;;;;;;;;;;;;-0.65;95.00;99602.88;5051917;28;836;-62
2022/03/07 05:04:21;;;;;;;;;;;;;;;-0.65;95.06;99607.50;5052139;28;874;-61
2022/03/07 05:06:47;;;;;;;;;;;;;;;-0.63;94.86;99608.75;5051865;28;824;-62
2022/03/07 05:09:13;;;;;;;;;;;;;;;-0.61;94.56;99605.72;5051900;28;859;-62
2022/03/07 05:11:40;;;;;;;;;;;;;;;-0.60;94.42;99618.16;5051700;28;1878;-61
2022/03/07 05:14:06;;;;;;;;;;;;;;;-0.59;93.97;99614.31;5051753;28;852;-62
2022/03/07 05:16:33;;;;;;;;;;;;;;;-0.58;93.82;99621.31;5051951;28;947;-61
2022/03/07 05:18:59;;;;;;;;;;;;;;;-0.58;93.99;99626.75;5052052;28;870;-61
2022/03/07 05:21:26;;;;;;;;;;;;;;;-0.56;93.98;99612.84;5051171;28;875;-61
2022/03/07 05:23:52;;;;;;;;;;;;;;;-0.54;93.79;99618.75;5051686;28;874;-61
2022/03/07 05:26:18;;;;;;;;;;;;;;;-0.54;93.91;99602.47;5051612;28;815;-61
2022/03/07 05:28:45;;;;;;;;;;;;;;;-0.53;93.54;99604.06;5050283;28;855;-61
2022/03/07 05:31:13;;;;;;;;;;;;;;;-0.50;93.23;99597.97;5051650;28;1890;-61
2022/03/07 05:33:41;;;;;;;;;;;;;;;-0.50;92.84;99609.59;5051795;28;945;-62
2022/03/07 05:36:07;;;;;;;;;;;;;;;-0.47;92.85;99619.00;5051482;28;867;-62
2022/03/07 05:38:34;;;;;;;;;;;;;;;-0.45;92.67;99617.56;5051526;28;791;-60
2022/03/07 05:41:00;;;;;;;;;;;;;;;-0.45;92.33;99606.69;5051453;28;807;-61
2022/03/07 05:43:26;;;;;;;;;;;;;;;-0.43;92.68;99600.91;5051361;28;1240;-61
2022/03/07 05:45:53;;;;;;;;;;;;;;;-0.41;92.70;99606.81;5051570;28;779;-61
2022/03/07 05:48:19;;;;;;;;;;;;;;;-0.38;92.08;99598.00;5051680;28;870;-62
2022/03/07 05:50:45;;;;;;;;;;;;;;;-0.36;92.13;99598.47;5051618;28;1918;-61
2022/03/07 05:53:11;;;;;;;;;;;;;;;-0.32;91.92;99596.69;5051357;28;859;-61
2022/03/07 05:55:38;;;;;;;;;;;;;;;-0.29;91.73;99593.28;5066792;28;851;-62
2022/03/07 05:58:04;;;;;;;;;;;;;;;-0.26;91.69;99597.25;5051240;28;819;-62
2022/03/07 06:00:31;;;;;;;;;;;;;;;-0.25;91.69;99596.91;5051123;28;836;-62
2022/03/07 06:02:57;;;;;;;;;;;;;;;-0.23;91.40;99593.88;5051216;28;932;-62
2022/03/07 06:05:24;;;;;;;;;;;;;;;-0.21;91.42;99592.41;5051173;28;944;-61
2022/03/07 06:07:51;;;;;;;;;;;;;;;-0.18;91.26;99604.53;5051186;28;886;-61
2022/03/07 06:10:17;;;;;;;;;;;;;;;-0.13;91.43;99596.16;5051104;28;1894;-61
2022/03/07 06:12:43;;;;;;;;;;;;;;;-0.13;90.90;99598.88;5049808;28;808;-61
2022/03/07 06:15:10;;;;;;;;;;;;;;;-0.11;90.76;99596.59;5051187;28;795;-61
2022/03/07 06:17:36;;;;;;;;;;;;;;;-0.10;91.06;99598.22;5050968;28;1380;-61
2022/03/07 06:20:04;;;;;;;;;;;;;;;-0.08;90.85;99592.44;5051094;28;858;-60
2022/03/07 06:22:30;;;;;;;;;;;;;;;-0.09;90.86;99602.50;5051022;28;1158;-60
2022/03/07 06:24:56;;;;;;;;;;;;;;;-0.09;90.92;99590.84;5051138;28;855;-60
2022/03/07 06:27:23;;;;;;;;;;;;;;;-0.07;90.66;99592.09;5050998;28;856;-60
2022/03/07 06:29:50;;;;;;;;;;;;;;;-0.06;90.26;99598.34;5050895;28;1953;-61
2022/03/07 06:32:17;;;;;;;;;;;;;;;-0.08;90.16;99600.59;5052700;28;886;-61
2022/03/07 06:34:43;;;;;;;;;;;;;;;-0.09;89.94;99597.06;5053502;28;1210;-61
2022/03/07 06:37:10;;;;;;;;;;;;;;;-0.08;89.96;99597.88;5054701;28;842;-61
2022/03/07 06:39:36;;;;;;;;;;;;;;;-0.06;90.15;99606.50;5070087;28;819;-60
2022/03/07 06:42:03;;;;;;;;;;;;;;;-0.04;89.77;99596.09;5054676;28;800;-61
2022/03/07 06:44:30;;;;;;;;;;;;;;;-0.03;89.62;99592.22;5054371;28;1409;-61
2022/03/07 06:46:56;;;;;;;;;;;;;;;0.00;90.20;99610.59;5053266;28;1464;-61
2022/03/07 06:49:23;;;;;;;;;;;;;;;0.02;89.84;99619.16;5054416;28;887;-60
2022/03/07 06:51:50;;;;;;;;;;;;;;;-0.02;89.39;99616.34;5054789;28;863;-60
2022/03/07 06:54:20;;;;;;;;;;;;;;;-0.01;89.11;99609.78;5054425;28;894;-60
2022/03/07 06:56:48;;;;;;;;;;;;;;;0.07;89.44;99591.78;5054411;28;1054;-60
2022/03/07 07:11:25;;;;;;;;;;;;;;;0.23;88.95;99616.38;5054363;28;1956;-60
2022/03/07 07:13:52;;;;;;;;;;;;;;;0.35;88.44;99621.84;5054040;28;827;-60
2022/03/07 07:16:18;;;;;;;;;;;;;;;0.50;88.76;99619.59;5053977;28;1013;-61
2022/03/07 07:18:45;;;;;;;;;;;;;;;0.57;88.21;99620.59;5053960;28;1104;-60
2022/03/07 07:21:11;;;;;;;;;;;;;;;0.59;87.30;99603.94;5052678;28;1285;-60
2022/03/07 07:23:37;;;;;;;;;;;;;;;0.68;87.43;99614.72;5054076;28;849;-60
2022/03/07 07:26:06;;;;;;;;;;;;;;;0.60;86.14;99611.78;5053791;28;855;-60
2022/03/07 07:28:34;;;;;;;;;;;;;;;0.65;86.52;99604.53;5053932;28;819;-60
2022/03/07 07:31:01;;;;;;;;;;;;;;;0.66;86.21;99608.81;5053595;28;1949;-60
2022/03/07 07:33:27;;;;;;;;;;;;;;;0.92;86.70;99612.00;5053676;28;917;-60
2022/03/07 07:35:54;;;;;;;;;;;;;;;1.22;86.07;99614.44;5052339;28;1294;-60
2022/03/07 07:38:21;;;;;;;;;;;;;;;1.34;84.88;99614.38;5053720;28;893;-61
2022/03/07 07:40:49;;;;;;;;;;;;;;;1.42;85.19;99627.06;5053452;28;887;-60
2022/03/07 07:43:16;;;;;;;;;;;;;;;1.47;84.25;99606.97;5052258;28;1311;-61
2022/03/07 07:45:42;;;;;;;;;;;;;;;1.18;83.61;99617.03;5053372;28;887;-60
2022/03/07 07:48:19;;;;;;;;;;;;;;;1.12;83.78;99620.34;5053676;28;948;-60
2022/03/07 07:50:46;;;;;;;;;;;;;;;1.33;83.83;99609.31;5053290;28;1930;-61
2022/03/07 07:53:11;;;;;;;;;;;;;;;1.52;84.26;99612.19;5069039;28;1140;-60
2022/03/07 07:55:38;;;;;;;;;;;;;;;1.64;83.90;99616.78;5053320;28;831;-60
2022/03/07 07:58:04;;;;;;;;;;;;;;;1.33;82.94;99604.63;5053365;28;823;-60
2022/03/07 08:00:34;;;;;;;;;;;;;;;1.23;83.10;99621.44;5053451;28;960;-60
2022/03/07 08:03:01;;;;;;;;;;;;;;;1.13;83.59;99611.03;5053123;28;804;-60
2022/03/07 08:05:27;;;;;;;;;;;;;;;1.19;83.80;99607.72;5053237;28;866;-61
2022/03/07 08:07:54;;;;;;;;;;;;;;;1.51;83.58;99610.59;5053233;28;862;-60
2022/03/07 08:10:23;;;;;;;;;;;;;;;1.48;82.62;99605.84;5051677;28;2203;-60
2022/03/07 08:12:49;;;;;;;;;;;;;;;1.34;82.52;99605.44;5052882;28;946;-60
2022/03/07 08:15:16;;;;;;;;;;;;;;;1.39;83.91;99619.59;5052945;28;799;-60
2022/03/07 08:17:46;;;;;;;;;;;;;;;1.46;82.91;99602.66;5053036;28;1108;-61
2022/03/07 08:20:13;;;;;;;;;;;;;;;1.28;82.62;99596.72;5053083;28;1239;-60
2022/03/07 08:22:40;;;;;;;;;;;;;;;1.18;83.91;99611.59;5052980;28;965;-61
2022/03/07 08:25:07;;;;;;;;;;;;;;;1.19;83.73;99585.16;5052932;28;922;-60
2022/03/07 08:27:34;;;;;;;;;;;;;;;1.12;84.24;99593.91;5052746;28;891;-60
2022/03/07 08:30:00;;;;;;;;;;;;;;;1.25;84.05;99589.22;5052883;28;1910;-60
2022/03/07 08:32:27;;;;;;;;;;;;;;;1.52;84.26;99592.34;5053268;28;835;-60
2022/03/07 08:34:53;;;;;;;;;;;;;;;1.53;83.75;99589.25;5052697;28;965;-60
2022/03/07 08:37:19;;;;;;;;;;;;;;;1.61;83.45;99587.50;5052501;28;890;-60
2022/03/07 08:39:46;;;;;;;;;;;;;;;1.75;82.70;99581.66;5052414;28;811;-60
2022/03/07 08:42:12;;;;;;;;;;;;;;;1.84;81.25;99572.19;5052352;28;823;-60
2022/03/07 08:44:39;;;;;;;;;;;;;;;1.81;82.31;99577.53;5052124;28;1467;-60
2022/03/07 08:47:08;;;;;;;;;;;;;;;1.95;81.95;99568.94;5052188;28;1090;-58
2022/03/07 08:49:34;;;;;;;;;;;;;;;1.86;82.43;99562.84;5052127;28;1906;-59
2022/03/07 08:52:00;;;;;;;;;;;;;;;1.75;82.63;99568.03;5052165;28;1001;-59
2022/03/07 08:54:27;;;;;;;;;;;;;;;1.73;82.91;99560.22;5052106;28;862;-59
2022/03/07 08:56:54;;;;;;;;;;;;;;;2.07;83.04;99559.88;5052163;28;831;-59
2022/03/07 08:59:20;;;;;;;;;;;;;;;2.08;81.16;99550.59;5051942;28;894;-60
2022/03/07 09:01:47;;;;;;;;;;;;;;;1.93;82.07;99552.16;5051941;28;914;-60
2022/03/07 09:04:13;;;;;;;;;;;;;;;1.87;81.60;99550.81;5051901;28;902;-60
2022/03/07 09:06:41;;;;;;;;;;;;;;;2.05;82.22;99560.25;5052202;28;973;-60
2022/03/07 09:09:08;;;;;;;;;;;;;;;2.23;80.94;99547.84;5052113;28;878;-60
2022/03/07 09:11:35;;;;;;;;;;;;;;;2.35;81.16;99562.56;5051766;28;1967;-60
2022/03/07 09:14:02;;;;;;;;;;;;;;;2.45;81.22;99562.00;5051815;28;803;-60
2022/03/07 09:16:27;;;;;;;;;;;;;;;2.60;80.28;99565.84;5051767;28;1003;-60
2022/03/07 09:18:53;;;;;;;;;;;;;;;2.55;79.74;99571.59;5051719;28;914;-59
2022/03/07 09:21:20;;;;;;;;;;;;;;;2.34;79.70;99564.47;5051686;28;926;-60
2022/03/07 09:23:47;;;;;;;;;;;;;;;2.22;79.94;99559.13;5051877;28;835;-60
2022/03/07 09:26:13;;;;;;;;;;;;;;;2.35;80.19;99560.59;5051756;28;862;-59
2022/03/07 09:28:40;;;;;;;;;;;;;;;2.44;79.24;99568.59;5051513;28;1009;-59
2022/03/07 09:31:06;;;;;;;;;;;;;;;2.48;79.73;99558.56;5051488;28;1965;-58
2022/03/07 09:33:32;;;;;;;;;;;;;;;2.42;79.36;99570.91;5051588;28;847;-58
2022/03/07 09:35:59;;;;;;;;;;;;;;;2.59;79.66;99570.53;5051487;28;839;-58
2022/03/07 09:38:28;;;;;;;;;;;;;;;2.81;78.87;99571.78;5051485;28;823;-59
2022/03/07 09:40:55;;;;;;;;;;;;;;;2.76;78.83;99563.88;5051383;28;969;-59
2022/03/07 09:43:22;;;;;;;;;;;;;;;2.86;79.32;99557.88;5051057;28;1621;-59
2022/03/07 09:45:49;;;;;;;;;;;;;;;2.92;78.30;99554.88;5051424;28;838;-58
2022/03/07 09:48:15;;;;;;;;;;;;;;;2.84;78.14;99559.41;5051374;28;894;-58
2022/03/07 09:50:45;;;;;;;;;;;;;;;2.79;78.46;99565.09;5051309;28;1983;-58
2022/03/07 09:53:13;;;;;;;;;;;;;;;2.79;77.74;99568.63;5051291;28;930;-59
2022/03/07 09:55:39;;;;;;;;;;;;;;;2.65;77.96;99569.09;5051275;28;863;-58
2022/03/07 09:58:06;;;;;;;;;;;;;;;2.48;77.88;99557.78;5051503;28;800;-58
2022/03/07 10:00:32;;;;;;;;;;;;;;;2.49;78.11;99581.19;5066644;28;973;-59
2022/03/07 10:03:02;;;;;;;;;;;;;;;2.66;78.83;99567.16;5051194;28;941;-59
2022/03/07 10:05:31;;;;;;;;;;;;;;;2.82;78.88;99567.16;5051180;28;918;-59
2022/03/07 10:07:58;;;;;;;;;;;;;;;3.05;77.77;99572.69;5054189;28;811;-58
2022/03/07 10:10:29;;;;;;;;;;;;;;;3.01;77.85;99545.34;5055429;28;1953;-58
2022/03/07 10:12:55;;;;;;;;;;;;;;;2.83;77.82;99574.19;5055504;28;858;-58
2022/03/07 10:15:23;;;;;;;;;;;;;;;2.89;77.61;99571.97;5054119;28;1292;-58
2022/03/07 10:17:51;;;;;;;;;;;;;;;2.88;76.96;99579.38;5055735;28;903;-59
2022/03/07 10:20:19;;;;;;;;;;;;;;;3.06;77.98;99572.34;5055003;28;954;-58
2022/03/07 10:22:47;;;;;;;;;;;;;;;3.14;77.74;99577.97;5054972;28;891;-58
2022/03/07 10:25:13;;;;;;;;;;;;;;;3.03;77.41;99581.25;5054931;28;969;-58
2022/03/07 10:27:44;;;;;;;;;;;;;;;2.98;78.51;99572.56;5053661;28;1410;-58
2022/03/07 10:30:12;;;;;;;;;;;;;;;3.01;77.66;99585.50;5054778;28;1885;-58
2022/03/07 10:32:40;;;;;;;;;;;;;;;3.18;77.01;99587.81;5054993;28;819;-58
2022/03/07 10:35:07;;;;;;;;;;;;;;;3.39;76.14;99600.34;5055068;28;887;-59
2022/03/07 10:37:34;;;;;;;;;;;;;;;3.12;76.00;99602.91;5054645;28;887;-59
2022/03/07 10:40:01;;;;;;;;;;;;;;;3.08;77.27;99588.38;5054718;28;803;-58
2022/03/07 10:42:28;;;;;;;;;;;;;;;3.17;76.33;99588.97;5069772;28;1236;-58
2022/03/07 10:45:02;;;;;;;;;;;;;;;3.32;76.68;99600.19;5054647;28;835;-58
2022/03/07 10:47:29;;;;;;;;;;;;;;;3.66;76.21;99584.88;5054487;28;902;-58
2022/03/07 10:49:56;;;;;;;;;;;;;;;3.36;76.18;99593.66;5054434;28;1981;-58
2022/03/07 10:52:24;;;;;;;;;;;;;;;3.41;76.99;99598.03;5054439;28;876;-58
2022/03/07 10:54:51;;;;;;;;;;;;;;;3.38;76.82;99591.34;5054461;28;839;-59
2022/03/07 10:57:18;;;;;;;;;;;;;;;3.46;76.70;99584.09;5054409;28;827;-58
2022/03/07 10:59:45;;;;;;;;;;;;;;;3.25;76.48;99587.97;5054420;28;808;-59
2022/03/07 11:02:16;;;;;;;;;;;;;;;3.75;78.41;99588.16;5054232;28;878;-59
2022/03/07 11:04:44;;;;;;;;;;;;;;;4.18;75.15;99582.69;5054527;28;902;-58
2022/03/07 11:07:12;;;;;;;;;;;;;;;4.31;74.26;99584.09;5054326;28;886;-59
2022/03/07 11:09:39;;;;;;;;;;;;;;;4.27;73.27;99580.50;5054023;28;1886;-59
2022/03/07 11:12:09;;;;;;;;;;;;;;;4.41;72.85;99575.25;5054106;28;893;-58
2022/03/07 11:14:38;;;;;;;;;;;;;;;4.30;73.09;99577.03;5054314;28;799;-58
2022/03/07 11:17:08;;;;;;;;;;;;;;;4.41;73.37;99574.47;5054106;28;1054;-58
2022/03/07 11:19:35;;;;;;;;;;;;;;;4.37;73.00;99576.34;5052649;28;837;-58
2022/03/07 11:22:03;;;;;;;;;;;;;;;4.38;71.60;99572.47;5053943;28;835;-58
2022/03/07 11:24:30;;;;;;;;;;;;;;;4.32;72.63;99572.00;5053815;28;891;-58
2022/03/07 11:26:57;;;;;;;;;;;;;;;4.75;71.62;99563.66;5053809;28;838;-58
2022/03/07 11:29:37;;;;;;;;;;;;;;;5.04;72.15;99560.16;5053730;28;875;-58
2022/03/07 11:32:05;;;;;;;;;;;;;;;5.60;74.30;99542.03;5053666;28;1024;-58
2022/03/07 11:34:32;;;;;;;;;;;;;;;5.80;70.51;99555.56;5053681;28;961;-58
2022/03/07 11:36:59;;;;;;;;;;;;;;;5.71;71.14;99547.63;5052400;28;856;-58
2022/03/07 11:39:33;;;;;;;;;;;;;;;5.53;69.47;99552.94;5053599;28;898;-58
2022/03/07 11:42:13;;;;;;;;;;;;;;;5.18;70.54;99558.75;5068992;28;822;-58
2022/03/07 11:44:42;;;;;;;;;;;;;;;5.11;73.54;99559.47;5053295;28;1367;-58
2022/03/07 11:47:12;;;;;;;;;;;;;;;5.28;72.08;99564.38;5053398;28;941;-58
2022/03/07 11:49:39;;;;;;;;;;;;;;;4.87;72.45;99558.75;5053344;28;1909;-58
2022/03/07 11:52:06;;;;;;;;;;;;;;;4.49;71.83;99554.28;5053326;28;937;-59
2022/03/07 11:54:34;;;;;;;;;;;;;;;4.34;72.34;99552.47;5053232;28;1010;-58
2022/03/07 11:57:07;;;;;;;;;;;;;;;4.34;72.76;99547.78;5053235;28;843;-58
2022/03/07 11:59:33;;;;;;;;;;;;;;;4.38;72.93;99542.38;5053193;28;871;-58
2022/03/07 12:02:00;;;;;;;;;;;;;;;4.57;73.38;99545.03;5053129;28;803;-58
2022/03/07 12:04:37;;;;;;;;;;;;;;;4.57;72.28;99541.50;5053167;28;906;-58
2022/03/07 12:07:04;;;;;;;;;;;;;;;4.37;74.21;99549.00;5053021;28;872;-58
2022/03/07 12:09:32;;;;;;;;;;;;;;;4.62;74.85;99539.22;5052974;28;847;-58
2022/03/07 12:12:07;;;;;;;;;;;;;;;4.85;72.53;99544.63;5052922;28;1957;-58
2022/03/07 12:14:35;;;;;;;;;;;;;;;5.04;73.29;99543.72;5052927;28;843;-58
2022/03/07 12:17:09;;;;;;;;;;;;;;;5.08;72.33;99547.31;5053058;28;1013;-58
2022/03/07 12:19:36;;;;;;;;;;;;;;;4.92;70.43;99549.41;5053512;28;804;-58
2022/03/07 12:22:13;;;;;;;;;;;;;;;4.69;72.03;99544.81;5053244;28;827;-58
2022/03/07 12:24:40;;;;;;;;;;;;;;;4.86;71.85;99539.94;5052545;28;918;-58
2022/03/07 12:27:07;;;;;;;;;;;;;;;4.80;72.11;99539.50;5052826;28;843;-58
2022/03/07 12:29:33;;;;;;;;;;;;;;;4.85;73.78;99535.63;5052255;28;906;-58
2022/03/07 12:32:05;;;;;;;;;;;;;;;5.05;73.68;99539.81;5052846;28;1957;-58
2022/03/07 12:34:35;;;;;;;;;;;;;;;4.97;72.80;99535.41;5052546;28;931;-58
2022/03/07 12:37:04;;;;;;;;;;;;;;;5.16;73.48;99537.19;5052433;28;902;-58
2022/03/07 12:39:42;;;;;;;;;;;;;;;5.04;72.78;99532.75;5052451;28;858;-58
2022/03/07 12:42:08;;;;;;;;;;;;;;;4.74;73.10;99534.69;5052678;28;932;-59
2022/03/07 12:44:34;;;;;;;;;;;;;;;4.77;73.00;99531.22;5052255;28;1422;-58
2022/03/07 12:47:01;;;;;;;;;;;;;;;4.46;73.04;99544.06;5052150;28;1154;-58
2022/03/07 12:49:27;;;;;;;;;;;;;;;4.34;73.36;99536.84;5052331;28;839;-58
2022/03/07 12:51:54;;;;;;;;;;;;;;;4.05;74.17;99541.03;5052229;28;1979;-58
2022/03/07 12:54:28;;;;;;;;;;;;;;;3.93;74.47;99535.78;5052056;28;819;-58
2022/03/07 12:56:55;;;;;;;;;;;;;;;3.93;75.25;99533.03;5052081;28;840;-58
2022/03/07 12:59:25;;;;;;;;;;;;;;;4.20;75.40;99539.34;5052136;28;933;-58
2022/03/07 13:01:52;;;;;;;;;;;;;;;4.21;73.53;99532.72;5052277;28;928;-59
2022/03/07 13:04:27;;;;;;;;;;;;;;;4.08;74.17;99532.91;5051991;28;942;-58
2022/03/07 13:06:55;;;;;;;;;;;;;;;4.72;75.19;99540.53;5051962;28;914;-58
2022/03/07 13:09:30;;;;;;;;;;;;;;;4.84;73.18;99534.84;5051899;28;928;-59
2022/03/07 13:11:57;;;;;;;;;;;;;;;4.92;74.32;99533.00;5051789;28;1957;-58
2022/03/07 13:14:25;;;;;;;;;;;;;;;4.79;73.19;99537.91;5051834;28;803;-58
2022/03/07 13:16:52;;;;;;;;;;;;;;;4.32;72.16;99522.75;5051897;28;970;-58
2022/03/07 13:19:23;;;;;;;;;;;;;;;4.10;72.44;99527.09;5051648;28;894;-58
2022/03/07 13:21:50;;;;;;;;;;;;;;;4.15;73.07;99526.75;5051708;28;969;-58
2022/03/07 13:24:19;;;;;;;;;;;;;;;4.04;73.02;99520.34;5051500;28;945;-58
2022/03/07 13:27:16;;;;;;;;;;;;;;;3.98;72.61;99536.25;5051857;28;858;-58
2022/03/07 13:29:44;;;;;;;;;;;;;;;3.96;72.46;99524.88;5050897;28;1890;-59
2022/03/07 13:32:19;;;;;;;;;;;;;;;4.04;73.45;99523.84;5051545;28;823;-57
2022/03/07 13:34:48;;;;;;;;;;;;;;;4.21;73.23;99525.31;5051545;28;846;-58
2022/03/07 13:37:27;;;;;;;;;;;;;;;4.08;73.32;99521.97;5050208;28;804;-59